createdAt,value
2018-06-24T00:02:12.291Z,10.98
2018-06-24T00:04:40.969Z,10.97
2018-06-24T00:07:10.045Z,10.99
2018-06-24T00:09:38.639Z,11.02
2018-06-24T00:12:07.340Z,11.01
2018-06-24T00:14:35.852Z,11.01
2018-06-24T00:17:04.403Z,11.02
2018-06-24T00:19:33.091Z,11.05
2018-06-24T00:22:01.606Z,11.08
2018-06-24T00:24:30.145Z,11.15
2018-06-24T00:26:58.728Z,11.22
2018-06-24T00:29:27.364Z,11.25
2018-06-24T00:31:55.903Z,11.26
2018-06-24T00:34:24.523Z,11.25
2018-06-24T00:36:53.088Z,11.23
2018-06-24T00:39:21.587Z,11.20
2018-06-24T00:41:50.152Z,11.19
2018-06-24T00:44:18.678Z,11.17
2018-06-24T00:46:47.350Z,11.13
2018-06-24T00:49:16.024Z,11.10
2018-06-24T00:51:44.550Z,11.06
2018-06-24T00:54:13.095Z,11.00
2018-06-24T00:56:41.666Z,10.96
2018-06-24T00:59:20.139Z,10.91
2018-06-24T01:01:48.659Z,10.85
2018-06-24T01:04:17.199Z,10.84
2018-06-24T01:06:45.787Z,10.80
2018-06-24T01:09:14.306Z,10.75
2018-06-24T01:11:42.839Z,10.70
2018-06-24T01:14:11.431Z,10.65
2018-06-24T01:16:39.980Z,10.60
2018-06-24T01:19:08.527Z,10.56
2018-06-24T01:21:37.111Z,10.55
2018-06-24T01:24:05.631Z,10.50
2018-06-24T01:26:34.147Z,10.47
2018-06-24T01:29:02.735Z,10.46
2018-06-24T01:31:31.411Z,10.43
2018-06-24T01:34:00.035Z,10.40
2018-06-24T01:36:28.718Z,10.39
2018-06-24T01:38:57.301Z,10.38
2018-06-24T01:41:25.828Z,10.39
2018-06-24T01:43:54.572Z,10.38
2018-06-24T01:46:23.103Z,10.40
2018-06-24T01:48:51.640Z,10.39
2018-06-24T01:51:20.199Z,10.38
2018-06-24T01:53:48.743Z,10.39
2018-06-24T01:56:17.485Z,10.39
2018-06-24T01:58:46.035Z,10.38
2018-06-24T02:01:14.664Z,10.37
2018-06-24T02:03:43.238Z,10.35
2018-06-24T02:06:11.764Z,10.34
2018-06-24T02:08:40.399Z,10.31
2018-06-24T02:11:09.040Z,10.29
2018-06-24T02:13:37.564Z,10.28
2018-06-24T02:16:06.433Z,10.28
2018-06-24T02:18:35.038Z,10.30
2018-06-24T02:21:03.621Z,10.32
2018-06-24T02:23:32.187Z,10.34
2018-06-24T02:26:00.726Z,10.32
2018-06-24T02:28:29.259Z,10.31
2018-06-24T02:30:57.767Z,10.34
2018-06-24T02:33:26.434Z,10.38
2018-06-24T02:35:55.021Z,10.39
2018-06-24T02:38:23.598Z,10.42
2018-06-24T02:40:52.184Z,10.44
2018-06-24T02:43:20.869Z,10.44
2018-06-24T02:45:49.509Z,10.44
2018-06-24T02:48:18.037Z,10.41
2018-06-24T02:50:46.562Z,10.37
2018-06-24T02:53:15.099Z,10.36
2018-06-24T02:55:43.639Z,10.38
2018-06-24T02:58:12.330Z,10.41
2018-06-24T03:00:40.832Z,10.43
2018-06-24T03:03:09.427Z,10.46
2018-06-24T03:05:38.010Z,10.49
2018-06-24T03:08:06.594Z,10.48
2018-06-24T03:10:35.144Z,10.50
2018-06-24T03:13:03.962Z,10.51
2018-06-24T03:15:32.641Z,10.52
2018-06-24T03:18:01.232Z,10.53
2018-06-24T03:20:29.768Z,10.54
2018-06-24T03:22:58.395Z,10.59
2018-06-24T03:25:26.917Z,10.62
2018-06-24T03:27:55.666Z,10.67
2018-06-24T03:30:24.295Z,10.73
2018-06-24T03:32:52.880Z,10.77
2018-06-24T03:35:21.515Z,10.85
2018-06-24T03:37:50.117Z,10.91
2018-06-24T03:40:18.758Z,11.00
2018-06-24T03:42:47.366Z,11.10
2018-06-24T03:45:15.949Z,11.19
2018-06-24T03:47:44.505Z,11.29
2018-06-24T03:50:13.080Z,11.37
2018-06-24T03:52:41.697Z,11.46
2018-06-24T03:55:10.219Z,11.57
2018-06-24T03:57:38.767Z,11.66
2018-06-24T04:00:07.899Z,11.79
2018-06-24T04:02:36.444Z,11.89
2018-06-24T04:05:05.227Z,12.00
2018-06-24T04:07:33.877Z,12.11
2018-06-24T04:10:02.498Z,12.22
2018-06-24T04:12:31.077Z,12.33
2018-06-24T04:14:59.660Z,12.48
2018-06-24T04:17:28.227Z,12.64
2018-06-24T04:19:56.930Z,12.80
2018-06-24T04:22:25.511Z,12.95
2018-06-24T04:24:54.094Z,13.10
2018-06-24T04:27:22.678Z,13.27
2018-06-24T04:29:51.260Z,13.41
2018-06-24T04:32:19.779Z,13.60
2018-06-24T04:34:48.324Z,13.76
2018-06-24T04:37:16.981Z,13.91
2018-06-24T04:39:45.593Z,14.07
2018-06-24T04:42:14.276Z,14.18
2018-06-24T04:44:42.963Z,14.29
2018-06-24T04:47:11.488Z,14.36
2018-06-24T04:49:40.005Z,14.49
2018-06-24T04:52:08.519Z,14.64
2018-06-24T04:54:37.028Z,14.76
2018-06-24T04:57:06.159Z,14.89
2018-06-24T04:59:34.709Z,15.01
2018-06-24T05:02:03.297Z,15.14
2018-06-24T05:04:31.916Z,15.20
2018-06-24T05:07:00.516Z,15.30
2018-06-24T05:09:29.062Z,15.33
2018-06-24T05:11:57.790Z,15.39
2018-06-24T05:14:26.371Z,15.42
2018-06-24T05:16:54.968Z,15.46
2018-06-24T05:19:23.640Z,15.57
2018-06-24T05:21:52.222Z,15.62
2018-06-24T05:24:20.852Z,15.72
2018-06-24T05:26:49.407Z,15.78
2018-06-24T05:29:18.033Z,15.87
2018-06-24T05:31:46.655Z,15.94
2018-06-24T05:34:15.239Z,15.97
2018-06-24T05:36:43.823Z,15.97
2018-06-24T05:39:13.288Z,15.97
2018-06-24T05:41:42.280Z,15.97
2018-06-24T05:44:11.088Z,15.95
2018-06-24T05:46:39.791Z,15.98
2018-06-24T05:49:08.476Z,16.03
2018-06-24T05:51:37.155Z,16.10
2018-06-24T05:54:05.817Z,16.14
2018-06-24T05:56:34.555Z,16.22
2018-06-24T05:59:03.175Z,16.26
2018-06-24T06:01:31.899Z,16.21
2018-06-24T06:04:00.584Z,16.21
2018-06-24T06:06:29.275Z,16.37
2018-06-24T06:08:57.942Z,16.45
2018-06-24T06:11:26.557Z,16.56
2018-06-24T06:13:55.174Z,16.63
2018-06-24T06:16:23.766Z,16.72
2018-06-24T06:18:52.489Z,16.82
2018-06-24T06:21:21.177Z,16.83
2018-06-24T06:23:49.829Z,16.91
2018-06-24T06:26:18.444Z,16.89
2018-06-24T06:28:47.123Z,17.02
2018-06-24T06:31:15.780Z,17.14
2018-06-24T06:33:44.386Z,17.22
2018-06-24T06:36:12.980Z,17.17
2018-06-24T06:38:41.616Z,17.26
2018-06-24T06:41:10.129Z,17.32
2018-06-24T06:43:38.728Z,17.33
2018-06-24T06:46:10.984Z,17.43
2018-06-24T06:48:39.846Z,17.53
2018-06-24T06:51:09.925Z,17.65
2018-06-24T06:53:39.056Z,17.73
2018-06-24T06:56:08.593Z,17.89
2018-06-24T06:58:39.037Z,18.02
2018-06-24T07:01:07.769Z,18.10
2018-06-24T07:03:36.448Z,18.10
2018-06-24T07:06:05.193Z,18.11
2018-06-24T07:08:33.943Z,18.12
2018-06-24T07:11:03.748Z,18.12
2018-06-24T07:13:32.570Z,18.21
2018-06-24T07:16:01.273Z,18.27
2018-06-24T07:18:30.415Z,18.29
2018-06-24T07:20:59.045Z,18.32
2018-06-24T07:23:27.746Z,18.35
2018-06-24T07:25:56.475Z,18.33
2018-06-24T07:28:25.117Z,18.43
2018-06-24T07:30:53.784Z,18.48
2018-06-24T07:33:22.430Z,18.45
2018-06-24T07:35:50.948Z,18.45
2018-06-24T07:38:19.528Z,18.51
2018-06-24T07:40:48.115Z,18.53
2018-06-24T07:43:16.645Z,18.58
2018-06-24T07:45:45.237Z,18.64
2018-06-24T07:48:15.809Z,18.71
2018-06-24T07:50:44.465Z,18.77
2018-06-24T07:53:13.056Z,18.78
2018-06-24T07:55:41.598Z,18.85
2018-06-24T07:58:10.189Z,18.86
2018-06-24T08:00:38.827Z,18.84
2018-06-24T08:03:07.479Z,18.83
2018-06-24T08:05:36.007Z,18.76
2018-06-24T08:08:04.779Z,18.72
2018-06-24T08:10:33.366Z,18.86
2018-06-24T08:13:02.000Z,19.06
2018-06-24T08:15:31.341Z,19.18
2018-06-24T08:17:59.953Z,19.25
2018-06-24T08:20:28.675Z,19.26
2018-06-24T08:22:57.187Z,19.22
2018-06-24T08:25:25.783Z,19.26
2018-06-24T08:27:54.294Z,19.29
2018-06-24T08:30:22.961Z,19.32
2018-06-24T08:32:51.599Z,19.19
2018-06-24T08:35:20.113Z,19.17
2018-06-24T08:37:49.825Z,19.15
2018-06-24T08:40:18.460Z,19.25
2018-06-24T08:42:47.092Z,19.32
2018-06-24T08:45:15.777Z,19.35
2018-06-24T08:47:44.319Z,19.35
2018-06-24T08:50:13.016Z,19.33
2018-06-24T08:52:41.626Z,19.40
2018-06-24T08:55:10.200Z,19.48
2018-06-24T08:57:38.837Z,19.52
2018-06-24T09:00:07.887Z,19.31
2018-06-24T09:02:36.572Z,19.31
2018-06-24T09:05:05.208Z,19.32
2018-06-24T09:07:33.842Z,19.30
2018-06-24T09:10:02.480Z,19.43
2018-06-24T09:12:31.520Z,19.45
2018-06-24T09:15:00.203Z,19.55
2018-06-24T09:17:28.786Z,19.54
2018-06-24T09:19:57.676Z,19.60
2018-06-24T09:22:26.362Z,19.66
2018-06-24T09:24:54.951Z,19.65
2018-06-24T09:27:23.684Z,19.60
2018-06-24T09:29:53.957Z,19.63
2018-06-24T09:32:22.640Z,19.73
2018-06-24T09:34:51.280Z,19.83
2018-06-24T09:37:20.011Z,19.72
2018-06-24T09:39:48.626Z,19.71
2018-06-24T09:42:17.365Z,19.78
2018-06-24T09:44:45.964Z,19.81
2018-06-24T09:47:14.647Z,19.88
2018-06-24T09:49:43.436Z,19.94
2018-06-24T09:52:12.120Z,19.98
2018-06-24T09:54:47.070Z,20.08
2018-06-24T09:57:18.503Z,20.23
2018-06-24T09:59:47.099Z,20.21
2018-06-24T10:02:31.755Z,20.12
2018-06-24T10:05:16.873Z,20.19
2018-06-24T10:07:45.826Z,20.19
2018-06-24T10:10:15.116Z,20.25
2018-06-24T10:12:44.662Z,20.30
2018-06-24T10:15:13.473Z,20.35
2018-06-24T10:17:42.295Z,20.32
2018-06-24T10:20:10.827Z,20.30
2018-06-24T10:22:39.453Z,20.27
2018-06-24T10:25:08.146Z,20.28
2018-06-24T10:27:36.848Z,20.35
2018-06-24T10:30:06.372Z,20.40
2018-06-24T10:32:35.014Z,20.26
2018-06-24T10:35:03.702Z,20.32
2018-06-24T10:37:32.283Z,20.39
2018-06-24T10:40:00.866Z,20.32
2018-06-24T10:42:29.455Z,20.26
2018-06-24T10:44:57.975Z,20.42
2018-06-24T10:47:26.499Z,20.34
2018-06-24T10:49:55.150Z,20.30
2018-06-24T10:52:23.682Z,20.30
2018-06-24T10:54:52.356Z,20.25
2018-06-24T10:57:20.895Z,20.40
2018-06-24T10:59:49.529Z,20.48
2018-06-24T11:02:18.287Z,20.49
2018-06-24T11:04:46.811Z,20.47
2018-06-24T11:07:15.456Z,20.41
2018-06-24T11:09:44.169Z,20.48
2018-06-24T11:12:12.757Z,20.49
2018-06-24T11:14:41.403Z,20.56
2018-06-24T11:17:09.980Z,20.68
2018-06-24T11:19:38.570Z,20.73
2018-06-24T11:22:07.156Z,20.73
2018-06-24T11:24:35.768Z,20.74
2018-06-24T11:27:04.299Z,20.68
2018-06-24T11:29:32.845Z,20.71
2018-06-24T11:32:01.394Z,20.53
2018-06-24T11:34:29.994Z,20.88
2018-06-24T11:36:58.591Z,20.98
2018-06-24T11:39:27.145Z,20.97
2018-06-24T11:41:55.707Z,20.97
2018-06-24T11:44:24.248Z,20.87
2018-06-24T11:46:52.909Z,20.77
2018-06-24T11:49:21.472Z,20.66
2018-06-24T11:51:49.992Z,20.45
2018-06-24T11:54:18.660Z,20.47
2018-06-24T11:56:47.188Z,20.46
2018-06-24T11:59:15.822Z,20.65
2018-06-24T12:01:44.364Z,20.70
2018-06-24T12:04:13.193Z,20.72
2018-06-24T12:06:41.844Z,20.56
2018-06-24T12:09:12.483Z,20.58
2018-06-24T12:11:41.116Z,20.61
2018-06-24T12:14:09.827Z,20.71
2018-06-24T12:16:38.355Z,20.72
2018-06-24T12:19:07.003Z,20.83
2018-06-24T12:21:35.630Z,20.81
2018-06-24T12:24:04.319Z,20.75
2018-06-24T12:26:32.912Z,20.88
2018-06-24T12:29:01.440Z,20.84
2018-06-24T12:31:30.144Z,20.79
2018-06-24T12:33:58.933Z,20.90
2018-06-24T12:36:39.285Z,20.93
2018-06-24T12:39:11.790Z,20.75
2018-06-24T12:41:40.370Z,20.79
2018-06-24T12:44:09.876Z,20.85
2018-06-24T12:46:38.485Z,20.89
2018-06-24T12:49:07.752Z,20.98
2018-06-24T12:51:37.335Z,21.07
2018-06-24T12:54:06.256Z,21.14
2018-06-24T12:56:34.888Z,21.18
2018-06-24T12:59:03.808Z,21.23
2018-06-24T13:01:32.263Z,21.25
2018-06-24T13:04:00.873Z,21.33
2018-06-24T13:06:29.477Z,21.41
2018-06-24T13:08:58.073Z,21.50
2018-06-24T13:11:27.050Z,21.46
2018-06-24T13:13:55.837Z,21.54
2018-06-24T13:16:24.581Z,21.56
2018-06-24T13:18:53.310Z,21.50
2018-06-24T13:21:21.916Z,21.53
2018-06-24T13:23:50.579Z,21.59
2018-06-24T13:26:19.240Z,21.71
2018-06-24T13:28:47.792Z,21.72
2018-06-24T13:31:16.429Z,21.53
2018-06-24T13:33:45.002Z,21.63
2018-06-24T13:36:13.601Z,21.74
2018-06-24T13:38:42.178Z,21.69
2018-06-24T13:41:10.865Z,21.71
2018-06-24T13:43:39.548Z,21.82
2018-06-24T13:46:08.234Z,21.83
2018-06-24T13:48:36.926Z,21.89
2018-06-24T13:51:05.608Z,21.89
2018-06-24T13:53:34.290Z,21.87
2018-06-24T13:56:02.952Z,21.87
2018-06-24T13:58:31.597Z,21.90
2018-06-24T14:01:00.203Z,21.94
2018-06-24T14:03:28.932Z,21.91
2018-06-24T14:05:57.603Z,21.84
2018-06-24T14:08:26.304Z,21.84
2018-06-24T14:10:54.903Z,21.89
2018-06-24T14:13:23.493Z,21.91
2018-06-24T14:15:52.255Z,21.88
2018-06-24T14:18:20.900Z,21.90
2018-06-24T14:20:49.794Z,21.91
2018-06-24T14:23:18.870Z,21.94
2018-06-24T14:25:47.461Z,21.89
2018-06-24T14:28:16.607Z,21.86
2018-06-24T14:30:45.293Z,21.87
2018-06-24T14:33:13.971Z,21.91
2018-06-24T14:35:42.607Z,21.98
2018-06-24T14:38:11.324Z,22.04
2018-06-24T14:40:40.187Z,22.12
2018-06-24T14:43:08.861Z,22.17
2018-06-24T14:45:37.657Z,22.19
2018-06-24T14:48:06.519Z,22.19
2018-06-24T14:50:35.180Z,22.27
2018-06-24T14:53:06.036Z,22.38
2018-06-24T14:55:34.695Z,22.40
2018-06-24T14:58:03.404Z,22.34
2018-06-24T15:00:32.019Z,22.32
2018-06-24T15:03:00.645Z,22.40
2018-06-24T15:05:29.295Z,22.51
2018-06-24T15:07:57.940Z,22.55
2018-06-24T15:10:26.579Z,22.53
2018-06-24T15:12:55.253Z,22.61
2018-06-24T15:15:23.877Z,22.69
2018-06-24T15:17:52.662Z,22.69
2018-06-24T15:20:21.323Z,22.70
2018-06-24T15:22:50.037Z,22.72
2018-06-24T15:25:18.722Z,22.67
2018-06-24T15:27:47.542Z,22.64
2018-06-24T15:30:16.295Z,22.64
2018-06-24T15:32:44.948Z,22.68
2018-06-24T15:35:14.828Z,22.73
2018-06-24T15:37:43.447Z,22.71
2018-06-24T15:40:12.161Z,22.69
2018-06-24T15:42:40.819Z,22.68
2018-06-24T15:45:09.950Z,22.65
2018-06-24T15:47:38.772Z,22.53
2018-06-24T15:50:07.521Z,22.57
2018-06-24T15:52:36.613Z,22.61
2018-06-24T15:55:06.062Z,22.56
2018-06-24T15:57:34.763Z,22.50
2018-06-24T16:00:03.588Z,22.50
2018-06-24T16:02:32.184Z,22.44
2018-06-24T16:05:01.066Z,22.36
2018-06-24T16:07:29.849Z,22.45
2018-06-24T16:09:58.487Z,22.50
2018-06-24T16:12:27.107Z,22.51
2018-06-24T16:14:55.792Z,22.41
2018-06-24T16:17:24.488Z,22.43
2018-06-24T16:19:53.039Z,22.36
2018-06-24T16:22:21.627Z,22.32
2018-06-24T16:24:51.897Z,22.29
2018-06-24T16:27:20.616Z,22.23
2018-06-24T16:29:49.181Z,22.24
2018-06-24T16:32:17.829Z,22.06
2018-06-24T16:34:46.514Z,22.09
2018-06-24T16:37:15.379Z,22.10
2018-06-24T16:39:43.987Z,21.94
2018-06-24T16:42:12.688Z,21.70
2018-06-24T16:44:41.315Z,21.70
2018-06-24T16:47:10.003Z,21.73
2018-06-24T16:49:38.691Z,21.62
2018-06-24T16:52:07.284Z,21.66
2018-06-24T16:54:35.916Z,21.71
2018-06-24T16:57:04.581Z,21.75
2018-06-24T16:59:33.214Z,21.72
2018-06-24T17:02:01.771Z,21.73
2018-06-24T17:04:30.383Z,21.68
2018-06-24T17:06:59.018Z,21.66
2018-06-24T17:09:27.696Z,21.73
2018-06-24T17:11:56.265Z,21.74
2018-06-24T17:14:24.840Z,21.87
2018-06-24T17:16:53.548Z,21.92
2018-06-24T17:19:22.051Z,21.93
2018-06-24T17:21:50.694Z,21.85
2018-06-24T17:24:19.301Z,21.92
2018-06-24T17:26:47.872Z,21.96
2018-06-24T17:29:16.462Z,21.96
2018-06-24T17:31:45.024Z,22.01
2018-06-24T17:34:15.905Z,22.13
2018-06-24T17:36:44.528Z,21.98
2018-06-24T17:39:13.591Z,21.91
2018-06-24T17:41:44.285Z,21.76
2018-06-24T17:44:13.052Z,21.54
2018-06-24T17:46:41.580Z,21.50
2018-06-24T17:49:10.357Z,21.51
2018-06-24T17:51:39.124Z,21.52
2018-06-24T17:54:07.797Z,21.38
2018-06-24T17:56:36.348Z,21.31
2018-06-24T17:59:04.907Z,21.27
2018-06-24T18:01:33.535Z,21.25
2018-06-24T18:04:02.237Z,21.02
2018-06-24T18:06:30.837Z,20.75
2018-06-24T18:08:59.925Z,20.69
2018-06-24T18:11:28.483Z,20.53
2018-06-24T18:13:57.052Z,20.37
2018-06-24T18:16:25.639Z,20.42
2018-06-24T18:18:54.262Z,20.49
2018-06-24T18:21:22.846Z,20.54
2018-06-24T18:23:51.392Z,20.42
2018-06-24T18:26:19.959Z,20.35
2018-06-24T18:28:48.597Z,20.27
2018-06-24T18:31:17.383Z,20.22
2018-06-24T18:33:45.906Z,20.05
2018-06-24T18:36:14.447Z,20.02
2018-06-24T18:38:43.315Z,19.99
2018-06-24T18:41:11.839Z,19.89
2018-06-24T18:43:40.318Z,19.85
2018-06-24T18:46:09.190Z,19.80
2018-06-24T18:48:37.722Z,19.72
2018-06-24T18:51:06.477Z,19.52
2018-06-24T18:53:35.091Z,19.35
2018-06-24T18:56:03.761Z,19.32
2018-06-24T18:58:32.311Z,19.26
2018-06-24T19:01:01.811Z,19.18
2018-06-24T19:03:30.376Z,19.08
2018-06-24T19:06:00.207Z,19.08
2018-06-24T19:08:28.788Z,18.98
2018-06-24T19:10:57.346Z,18.78
2018-06-24T19:13:25.959Z,18.66
2018-06-24T19:15:54.643Z,18.54
2018-06-24T19:18:23.178Z,18.49
2018-06-24T19:20:51.804Z,18.36
2018-06-24T19:23:20.591Z,18.36
2018-06-24T19:25:49.281Z,18.31
2018-06-24T19:28:17.883Z,18.24
2018-06-24T19:30:46.443Z,18.20
2018-06-24T19:33:15.020Z,18.11
2018-06-24T19:35:43.715Z,18.06
2018-06-24T19:38:12.294Z,17.98
2018-06-24T19:40:40.884Z,17.89
2018-06-24T19:43:09.431Z,17.82
2018-06-24T19:45:37.936Z,17.73
2018-06-24T19:48:06.939Z,17.63
2018-06-24T19:50:35.462Z,17.50
2018-06-24T19:53:04.102Z,17.40
2018-06-24T19:55:32.792Z,17.36
2018-06-24T19:58:01.447Z,17.27
2018-06-24T20:00:29.973Z,17.24
2018-06-24T20:02:58.492Z,17.14
2018-06-24T20:05:27.023Z,17.06
2018-06-24T20:07:55.547Z,17.03
2018-06-24T20:10:24.383Z,16.97
2018-06-24T20:12:52.934Z,16.88
2018-06-24T20:15:21.463Z,16.79
2018-06-24T20:17:49.970Z,16.76
2018-06-24T20:20:18.514Z,16.70
2018-06-24T20:22:47.011Z,16.63
2018-06-24T20:25:15.599Z,16.58
2018-06-24T20:27:44.259Z,16.52
2018-06-24T20:30:12.903Z,16.47
2018-06-24T20:32:41.463Z,16.43
2018-06-24T20:35:10.060Z,16.40
2018-06-24T20:37:38.644Z,16.40
2018-06-24T20:40:07.227Z,16.39
2018-06-24T20:42:35.858Z,16.32
2018-06-24T20:45:04.436Z,16.25
2018-06-24T20:47:33.072Z,16.20
2018-06-24T20:50:01.655Z,16.18
2018-06-24T20:52:30.254Z,16.18
2018-06-24T20:54:58.915Z,16.11
2018-06-24T20:57:27.515Z,16.07
2018-06-24T20:59:56.056Z,16.04
2018-06-24T21:02:24.619Z,16.01
2018-06-24T21:04:53.411Z,15.94
2018-06-24T21:07:22.097Z,15.89
2018-06-24T21:09:50.607Z,15.84
2018-06-24T21:12:19.263Z,15.76
2018-06-24T21:14:47.845Z,15.70
2018-06-24T21:17:16.428Z,15.63
2018-06-24T21:19:45.095Z,15.56
2018-06-24T21:22:13.574Z,15.54
2018-06-24T21:24:42.142Z,15.49
2018-06-24T21:27:11.727Z,15.44
2018-06-24T21:29:40.982Z,15.35
2018-06-24T21:32:09.559Z,15.30
2018-06-24T21:34:38.054Z,15.25
2018-06-24T21:37:06.536Z,15.18
2018-06-24T21:39:35.019Z,15.09
2018-06-24T21:42:03.635Z,15.05
2018-06-24T21:44:32.373Z,14.99
2018-06-24T21:47:00.958Z,14.94
2018-06-24T21:49:29.504Z,14.89
2018-06-24T21:51:58.087Z,14.83
2018-06-24T21:54:26.706Z,14.76
2018-06-24T21:56:55.235Z,14.72
2018-06-24T21:59:23.873Z,14.69
2018-06-24T22:01:52.559Z,14.64
2018-06-24T22:04:21.087Z,14.59
2018-06-24T22:06:49.599Z,14.56
2018-06-24T22:09:18.204Z,14.52
2018-06-24T22:11:46.890Z,14.51
2018-06-24T22:14:15.522Z,14.47
2018-06-24T22:16:44.040Z,14.45
2018-06-24T22:19:12.585Z,14.45
2018-06-24T22:21:41.119Z,14.43
2018-06-24T22:24:09.806Z,14.44
2018-06-24T22:26:38.388Z,14.43
2018-06-24T22:29:07.074Z,14.42
2018-06-24T22:31:35.698Z,14.41
2018-06-24T22:34:04.300Z,14.41
2018-06-24T22:36:33.041Z,14.40
2018-06-24T22:39:01.715Z,14.38
2018-06-24T22:41:30.372Z,14.38
2018-06-24T22:43:58.966Z,14.35
2018-06-24T22:46:27.684Z,14.32
2018-06-24T22:48:56.356Z,14.32
2018-06-24T22:51:25.045Z,14.29
2018-06-24T22:53:53.666Z,14.29
2018-06-24T22:56:22.367Z,14.30
2018-06-24T22:59:02.597Z,14.28
2018-06-24T23:01:31.769Z,14.27
2018-06-24T23:04:00.424Z,14.27
2018-06-24T23:06:29.466Z,14.28
2018-06-24T23:08:58.750Z,14.27
2018-06-24T23:11:27.434Z,14.24
2018-06-24T23:13:56.119Z,14.25
2018-06-24T23:16:24.708Z,14.25
2018-06-24T23:18:53.298Z,14.26
2018-06-24T23:21:21.971Z,14.24
2018-06-24T23:23:50.558Z,14.25
2018-06-24T23:26:19.194Z,14.24
2018-06-24T23:28:48.024Z,14.23
2018-06-24T23:31:16.586Z,14.23
2018-06-24T23:33:45.166Z,14.23
2018-06-24T23:36:13.977Z,14.21
2018-06-24T23:38:42.628Z,14.22
2018-06-24T23:41:11.251Z,14.22
2018-06-24T23:43:40.136Z,14.22
2018-06-24T23:46:09.150Z,14.23
2018-06-24T23:48:37.886Z,14.23
2018-06-24T23:51:06.550Z,14.23
2018-06-24T23:53:35.186Z,14.23
2018-06-24T23:56:04.077Z,14.22
2018-06-24T23:58:32.667Z,14.22
